Fort Benning, GA

4:04 PM EDT on October 21, 2014 (GMT -0400)
Auburn-opelika-pitts | Change Station
CLOSE
Current Station
Airport
Location: Auburn,
Elevation: 774 ft
Nearby Weather Stations

Elev 774 ft 32.62 °N, 85.43 °W | Updated 9 minutes ago

Clear
Clear
73 °F
Feels Like 73 °F
N
10
Wind Variable Wind from NW

Today
High -- | Low -- °F
--% Chance of Precip.
Yesterday
High -- | Low -- °F
Precip. -- in
7:47 AM 7:00 PM
Waning Crescent, 4% visible
Pressure 30.01 in
Visibility 10.0 miles
Clouds Clear
Dew Point 50 °F
Humidity 44%
Rainfall 0.00 in
Snow Depth Not available.
UV 4 out of 12
Pollen 2.70 out of 12
Ozone Good
PM2.5 Good
Flu Activity Sporadic
METAR KAUO 211955Z AUTO 32009KT 10SM CLR 23/10 A3001 RMK AO1

More Conditions Fewer Conditions

Pressure 30.01 in
Visibility 10.0 miles
Clouds Clear
Dew Point 50 °F
Humidity 44%
Rainfall 0.00 in
Snow Depth Not available.
UV 4 out of 12
Pollen 2.70 out of 12
Ozone Good
PM2.5 Good
Flu Activity Sporadic
METAR KAUO 211955Z AUTO 32009KT 10SM CLR 23/10 A3001 RMK AO1

More Conditions Fewer Conditions

10-Day Weather Forecast

Almanac

Astronomy

Oct. 21, 2014 Rise Set
Actual Time 7:47 AM EDT 7:00 PM EDT
Civil Twilight 7:23 AM EDT 7:24 PM EDT
Nautical Twilight 6:54 AM EDT 7:53 PM EDT
Astronomical Twilight 6:25 AM EDT 8:22 PM EDT
Moon 5:38 AM EDT 5:47 PM EDT
Length of Visible Light 12h 01m
Length of Day
11h 12m
Tomorrow will be 1m 51s shorter.
Waning Crescent, 4% of the Moon is Illuminated
Today
Waning Crescent
Oct 23
New
Oct 30
First Quarter
Nov 6
Full
Nov 14
Last Quarter

Today's Extremes

State Highs State Lows

Community

WunderPhotos

Upload Photos

1,763,757 photos uploaded!

Nearby

Air Quality

  Air Quality AQ Index Pollutant
Yesterday Good
PM2.5
Yesterday Good
OZONE
Current Good
OZONE
Current Good
PM2.5
Tuesday Good
PM2.5
Wednesday Good
PM2.5

Snow Depth

Station Depth Elevation
No new snow has been reported.

Earthquake Activity

City Distance Mag. Time & Date
No recent earthquake activity has been reported nearby.
Minimum magnitude displayed is 2.5.

Coastal Water Temperatures

Place Temperature
No Stations Reporting

Nearby Weather Stations